sensor_id;sensor_type;location;lat;lon;timestamp;pressure;altitude;pressure_sealevel;temperature;humidity
11936;BME280;6027;48.576;9.180;2023-02-22T00:00:50;96770.78;;;6.02;91.83
11936;BME280;6027;48.576;9.180;2023-02-22T00:03:25;96795.16;;;6.12;91.96
11936;BME280;6027;48.576;9.180;2023-02-22T00:05:56;96795.41;;;6.01;92.13
11936;BME280;6027;48.576;9.180;2023-02-22T00:08:30;96793.75;;;6.00;92.04
11936;BME280;6027;48.576;9.180;2023-02-22T00:11:05;96786.09;;;6.06;91.23
11936;BME280;6027;48.576;9.180;2023-02-22T00:13:32;96782.63;;;6.06;90.64
11936;BME280;6027;48.576;9.180;2023-02-22T00:15:59;96784.59;;;6.04;91.57
11936;BME280;6027;48.576;9.180;2023-02-22T00:18:25;96785.78;;;6.09;92.00
11936;BME280;6027;48.576;9.180;2023-02-22T00:20:58;96756.81;;;6.01;92.05
11936;BME280;6027;48.576;9.180;2023-02-22T00:23:25;96783.00;;;6.11;90.11
11936;BME280;6027;48.576;9.180;2023-02-22T00:25:53;96787.88;;;6.06;90.66
11936;BME280;6027;48.576;9.180;2023-02-22T00:28:19;96784.03;;;5.92;91.94
11936;BME280;6027;48.576;9.180;2023-02-22T00:30:45;96778.69;;;5.84;93.45
11936;BME280;6027;48.576;9.180;2023-02-22T00:33:13;96774.25;;;5.84;92.23
11936;BME280;6027;48.576;9.180;2023-02-22T00:35:39;96772.47;;;5.85;91.40
11936;BME280;6027;48.576;9.180;2023-02-22T00:38:06;96766.00;;;5.79;92.26
11936;BME280;6027;48.576;9.180;2023-02-22T00:40:34;96771.22;;;5.71;94.25
11936;BME280;6027;48.576;9.180;2023-02-22T00:43:02;96769.81;;;5.33;97.00
11936;BME280;6027;48.576;9.180;2023-02-22T00:45:29;96777.06;;;5.39;96.91
11936;BME280;6027;48.576;9.180;2023-02-22T00:47:55;96772.25;;;5.52;95.85
11936;BME280;6027;48.576;9.180;2023-02-22T00:50:23;96774.72;;;5.54;95.26
11936;BME280;6027;48.576;9.180;2023-02-22T00:52:49;96768.28;;;5.48;95.86
11936;BME280;6027;48.576;9.180;2023-02-22T00:55:18;96769.94;;;5.49;96.73
11936;BME280;6027;48.576;9.180;2023-02-22T00:57:44;96768.56;;;5.45;97.55
11936;BME280;6027;48.576;9.180;2023-02-22T01:00:35;96770.06;;;5.48;97.43
11936;BME280;6027;48.576;9.180;2023-02-22T01:03:03;96772.84;;;5.46;97.63
11936;BME280;6027;48.576;9.180;2023-02-22T01:05:30;96770.53;;;5.43;98.12
11936;BME280;6027;48.576;9.180;2023-02-22T01:07:56;96765.91;;;5.37;98.14
11936;BME280;6027;48.576;9.180;2023-02-22T01:10:24;96769.50;;;5.36;98.09
11936;BME280;6027;48.576;9.180;2023-02-22T01:12:50;96762.03;;;5.06;100.00
11936;BME280;6027;48.576;9.180;2023-02-22T01:15:19;96762.69;;;5.08;100.00
11936;BME280;6027;48.576;9.180;2023-02-22T01:17:49;96764.66;;;5.06;100.00
11936;BME280;6027;48.576;9.180;2023-02-22T01:20:15;96766.31;;;4.89;100.00
11936;BME280;6027;48.576;9.180;2023-02-22T01:22:43;96768.31;;;4.77;100.00
11936;BME280;6027;48.576;9.180;2023-02-22T01:25:10;96768.75;;;4.55;100.00
11936;BME280;6027;48.576;9.180;2023-02-22T01:27:36;96764.16;;;4.39;100.00
11936;BME280;6027;48.576;9.180;2023-02-22T01:30:04;96760.72;;;4.39;100.00
11936;BME280;6027;48.576;9.180;2023-02-22T01:32:36;96750.50;;;4.36;100.00
11936;BME280;6027;48.576;9.180;2023-02-22T01:35:09;96754.97;;;4.26;100.00
11936;BME280;6027;48.576;9.180;2023-02-22T01:37:35;96750.13;;;4.31;100.00
11936;BME280;6027;48.576;9.180;2023-02-22T01:40:03;96744.44;;;4.35;100.00
11936;BME280;6027;48.576;9.180;2023-02-22T01:42:31;96739.34;;;4.34;100.00
11936;BME280;6027;48.576;9.180;2023-02-22T01:48:02;96734.59;;;4.20;100.00
11936;BME280;6027;48.576;9.180;2023-02-22T01:50:31;96731.78;;;4.31;100.00
11936;BME280;6027;48.576;9.180;2023-02-22T01:52:59;96728.06;;;4.24;100.00
11936;BME280;6027;48.576;9.180;2023-02-22T01:55:24;96728.34;;;4.03;100.00
11936;BME280;6027;48.576;9.180;2023-02-22T01:57:51;96737.84;;;4.04;100.00
11936;BME280;6027;48.576;9.180;2023-02-22T02:00:18;96730.28;;;4.01;100.00
11936;BME280;6027;48.576;9.180;2023-02-22T02:02:59;96728.94;;;3.87;100.00
11936;BME280;6027;48.576;9.180;2023-02-22T02:05:26;96730.09;;;3.75;100.00
11936;BME280;6027;48.576;9.180;2023-02-22T02:07:52;96726.66;;;3.74;100.00
11936;BME280;6027;48.576;9.180;2023-02-22T02:10:18;96722.84;;;3.96;100.00
11936;BME280;6027;48.576;9.180;2023-02-22T02:12:47;96720.81;;;3.90;100.00
11936;BME280;6027;48.576;9.180;2023-02-22T02:15:24;96712.66;;;3.93;100.00
11936;BME280;6027;48.576;9.180;2023-02-22T02:17:53;96709.22;;;3.93;100.00
11936;BME280;6027;48.576;9.180;2023-02-22T02:39:37;96688.53;;;3.99;100.00
11936;BME280;6027;48.576;9.180;2023-02-22T02:42:07;96689.81;;;3.86;100.00
11936;BME280;6027;48.576;9.180;2023-02-22T02:44:38;96689.16;;;3.84;100.00
11936;BME280;6027;48.576;9.180;2023-02-22T02:47:12;96670.66;;;3.85;100.00
11936;BME280;6027;48.576;9.180;2023-02-22T02:49:50;96669.25;;;3.91;100.00
11936;BME280;6027;48.576;9.180;2023-02-22T02:52:17;96665.94;;;3.89;100.00
11936;BME280;6027;48.576;9.180;2023-02-22T02:54:45;96662.47;;;3.98;100.00
11936;BME280;6027;48.576;9.180;2023-02-22T02:57:12;96662.69;;;4.04;100.00
11936;BME280;6027;48.576;9.180;2023-02-22T02:59:38;96661.28;;;4.10;100.00
11936;BME280;6027;48.576;9.180;2023-02-22T03:07:22;96655.47;;;3.89;100.00
11936;BME280;6027;48.576;9.180;2023-02-22T03:13:11;96646.56;;;3.54;100.00
11936;BME280;6027;48.576;9.180;2023-02-22T03:23:59;96648.75;;;3.59;100.00
11936;BME280;6027;48.576;9.180;2023-02-22T03:26:52;96640.97;;;3.67;100.00
11936;BME280;6027;48.576;9.180;2023-02-22T03:29:23;96646.38;;;3.65;100.00
11936;BME280;6027;48.576;9.180;2023-02-22T03:31:55;96635.66;;;3.59;100.00
11936;BME280;6027;48.576;9.180;2023-02-22T03:34:32;96643.31;;;3.70;100.00
11936;BME280;6027;48.576;9.180;2023-02-22T03:37:04;96635.31;;;3.71;100.00
11936;BME280;6027;48.576;9.180;2023-02-22T03:39:34;96644.28;;;3.69;100.00
11936;BME280;6027;48.576;9.180;2023-02-22T03:42:08;96643.16;;;3.71;100.00
11936;BME280;6027;48.576;9.180;2023-02-22T03:44:37;96641.75;;;3.77;100.00
11936;BME280;6027;48.576;9.180;2023-02-22T03:47:07;96641.22;;;3.73;100.00
11936;BME280;6027;48.576;9.180;2023-02-22T03:49:36;96640.75;;;3.60;100.00
11936;BME280;6027;48.576;9.180;2023-02-22T03:52:06;96640.97;;;3.67;100.00
11936;BME280;6027;48.576;9.180;2023-02-22T03:54:32;96638.09;;;3.33;100.00
11936;BME280;6027;48.576;9.180;2023-02-22T03:57:10;96640.47;;;3.26;100.00
11936;BME280;6027;48.576;9.180;2023-02-22T03:59:38;96638.84;;;3.16;100.00
11936;BME280;6027;48.576;9.180;2023-02-22T04:02:04;96635.03;;;2.91;100.00
11936;BME280;6027;48.576;9.180;2023-02-22T04:04:30;96632.03;;;2.86;100.00
11936;BME280;6027;48.576;9.180;2023-02-22T04:06:55;96631.75;;;2.69;100.00
11936;BME280;6027;48.576;9.180;2023-02-22T04:09:21;96631.72;;;2.89;100.00
11936;BME280;6027;48.576;9.180;2023-02-22T04:11:46;96633.38;;;2.90;100.00
11936;BME280;6027;48.576;9.180;2023-02-22T04:14:13;96635.72;;;3.02;100.00
11936;BME280;6027;48.576;9.180;2023-02-22T04:16:38;96633.19;;;3.10;100.00
11936;BME280;6027;48.576;9.180;2023-02-22T04:19:04;96641.19;;;3.09;100.00
11936;BME280;6027;48.576;9.180;2023-02-22T04:23:57;96632.91;;;3.13;100.00
11936;BME280;6027;48.576;9.180;2023-02-22T04:26:24;96636.75;;;3.19;100.00
11936;BME280;6027;48.576;9.180;2023-02-22T04:28:49;96638.69;;;3.17;100.00
11936;BME280;6027;48.576;9.180;2023-02-22T04:31:15;96623.56;;;3.11;100.00
11936;BME280;6027;48.576;9.180;2023-02-22T04:33:41;96635.69;;;3.12;100.00
11936;BME280;6027;48.576;9.180;2023-02-22T04:36:07;96631.13;;;3.14;100.00
11936;BME280;6027;48.576;9.180;2023-02-22T04:38:33;96633.75;;;3.14;100.00
11936;BME280;6027;48.576;9.180;2023-02-22T04:40:59;96636.78;;;3.09;100.00
11936;BME280;6027;48.576;9.180;2023-02-22T04:43:24;96627.88;;;3.02;100.00
11936;BME280;6027;48.576;9.180;2023-02-22T04:45:50;96634.03;;;3.11;100.00
11936;BME280;6027;48.576;9.180;2023-02-22T04:48:15;96614.09;;;3.00;100.00
11936;BME280;6027;48.576;9.180;2023-02-22T04:50:41;96634.16;;;3.09;100.00
11936;BME280;6027;48.576;9.180;2023-02-22T04:53:07;96624.84;;;3.07;100.00
11936;BME280;6027;48.576;9.180;2023-02-22T04:55:33;96628.88;;;2.82;100.00
11936;BME280;6027;48.576;9.180;2023-02-22T04:57:58;96626.41;;;2.52;100.00
11936;BME280;6027;48.576;9.180;2023-02-22T05:00:24;96621.75;;;2.46;100.00
11936;BME280;6027;48.576;9.180;2023-02-22T05:02:50;96619.69;;;2.39;100.00
11936;BME280;6027;48.576;9.180;2023-02-22T05:05:17;96624.50;;;2.44;100.00
11936;BME280;6027;48.576;9.180;2023-02-22T05:07:43;96629.31;;;2.29;100.00
11936;BME280;6027;48.576;9.180;2023-02-22T05:10:10;96633.56;;;2.01;100.00
11936;BME280;6027;48.576;9.180;2023-02-22T05:12:36;96632.72;;;2.01;100.00
11936;BME280;6027;48.576;9.180;2023-02-22T05:15:03;96626.97;;;2.17;100.00
11936;BME280;6027;48.576;9.180;2023-02-22T05:17:29;96624.78;;;2.22;100.00
11936;BME280;6027;48.576;9.180;2023-02-22T05:19:55;96623.69;;;2.24;100.00
11936;BME280;6027;48.576;9.180;2023-02-22T05:22:20;96619.41;;;2.23;100.00
11936;BME280;6027;48.576;9.180;2023-02-22T05:24:45;96619.13;;;2.36;100.00
11936;BME280;6027;48.576;9.180;2023-02-22T05:27:11;96619.00;;;2.37;100.00
11936;BME280;6027;48.576;9.180;2023-02-22T05:29:36;96620.91;;;2.55;100.00
11936;BME280;6027;48.576;9.180;2023-02-22T05:32:03;96619.53;;;2.60;100.00
11936;BME280;6027;48.576;9.180;2023-02-22T05:34:29;96621.19;;;2.61;100.00
11936;BME280;6027;48.576;9.180;2023-02-22T05:36:55;96622.44;;;2.57;100.00
11936;BME280;6027;48.576;9.180;2023-02-22T05:39:20;96612.94;;;2.56;100.00
11936;BME280;6027;48.576;9.180;2023-02-22T05:41:46;96611.84;;;2.59;100.00
11936;BME280;6027;48.576;9.180;2023-02-22T05:44:12;96610.88;;;2.60;100.00
11936;BME280;6027;48.576;9.180;2023-02-22T05:46:37;96612.94;;;2.56;100.00
11936;BME280;6027;48.576;9.180;2023-02-22T05:49:03;96610.47;;;2.35;100.00
11936;BME280;6027;48.576;9.180;2023-02-22T05:51:28;96609.91;;;2.13;100.00
11936;BME280;6027;48.576;9.180;2023-02-22T05:53:53;96609.91;;;2.03;100.00
11936;BME280;6027;48.576;9.180;2023-02-22T05:56:21;96597.03;;;2.11;100.00
11936;BME280;6027;48.576;9.180;2023-02-22T05:58:46;96597.53;;;1.95;100.00
11936;BME280;6027;48.576;9.180;2023-02-22T06:01:11;96596.84;;;1.84;100.00
11936;BME280;6027;48.576;9.180;2023-02-22T06:03:37;96593.94;;;1.67;100.00
11936;BME280;6027;48.576;9.180;2023-02-22T06:06:02;96597.78;;;1.83;100.00
11936;BME280;6027;48.576;9.180;2023-02-22T06:08:28;96575.44;;;1.40;100.00
11936;BME280;6027;48.576;9.180;2023-02-22T06:10:54;96594.56;;;1.50;100.00
11936;BME280;6027;48.576;9.180;2023-02-22T06:13:19;96595.53;;;1.59;100.00
11936;BME280;6027;48.576;9.180;2023-02-22T06:15:45;96594.50;;;1.71;100.00
11936;BME280;6027;48.576;9.180;2023-02-22T06:18:10;96598.38;;;1.86;100.00
11936;BME280;6027;48.576;9.180;2023-02-22T06:20:36;96595.34;;;1.91;100.00
11936;BME280;6027;48.576;9.180;2023-02-22T06:23:01;96596.19;;;1.91;100.00
11936;BME280;6027;48.576;9.180;2023-02-22T06:25:28;96590.66;;;1.94;100.00
11936;BME280;6027;48.576;9.180;2023-02-22T06:27:56;96601.41;;;2.11;100.00
11936;BME280;6027;48.576;9.180;2023-02-22T06:30:23;96598.13;;;2.08;100.00
11936;BME280;6027;48.576;9.180;2023-02-22T06:32:49;96594.09;;;2.14;100.00
11936;BME280;6027;48.576;9.180;2023-02-22T06:35:15;96598.66;;;2.22;100.00
11936;BME280;6027;48.576;9.180;2023-02-22T06:37:40;96602.66;;;2.26;100.00
11936;BME280;6027;48.576;9.180;2023-02-22T06:40:06;96608.56;;;2.28;100.00
11936;BME280;6027;48.576;9.180;2023-02-22T06:42:32;96607.59;;;2.19;100.00
11936;BME280;6027;48.576;9.180;2023-02-22T06:44:57;96599.47;;;2.13;100.00
11936;BME280;6027;48.576;9.180;2023-02-22T06:47:23;96595.75;;;2.15;100.00
11936;BME280;6027;48.576;9.180;2023-02-22T06:49:55;96608.16;;;2.23;100.00
11936;BME280;6027;48.576;9.180;2023-02-22T06:52:22;96608.28;;;2.21;100.00
11936;BME280;6027;48.576;9.180;2023-02-22T06:54:48;96607.06;;;2.25;100.00
11936;BME280;6027;48.576;9.180;2023-02-22T06:57:14;96607.03;;;2.16;100.00
11936;BME280;6027;48.576;9.180;2023-02-22T06:59:39;96609.09;;;2.22;100.00
11936;BME280;6027;48.576;9.180;2023-02-22T07:02:05;96584.50;;;2.05;100.00
11936;BME280;6027;48.576;9.180;2023-02-22T07:04:30;96602.25;;;2.11;100.00
11936;BME280;6027;48.576;9.180;2023-02-22T07:06:56;96604.28;;;2.36;100.00
11936;BME280;6027;48.576;9.180;2023-02-22T07:09:21;96603.72;;;2.33;100.00
11936;BME280;6027;48.576;9.180;2023-02-22T07:11:47;96601.81;;;2.25;100.00
11936;BME280;6027;48.576;9.180;2023-02-22T07:14:12;96605.81;;;2.39;100.00
11936;BME280;6027;48.576;9.180;2023-02-22T07:16:40;96601.81;;;2.25;100.00
11936;BME280;6027;48.576;9.180;2023-02-22T07:19:05;96598.38;;;2.34;100.00
11936;BME280;6027;48.576;9.180;2023-02-22T07:21:31;96597.41;;;2.35;100.00
11936;BME280;6027;48.576;9.180;2023-02-22T07:23:57;96599.75;;;2.38;100.00
11936;BME280;6027;48.576;9.180;2023-02-22T07:26:23;96593.56;;;2.49;100.00
11936;BME280;6027;48.576;9.180;2023-02-22T07:28:49;96594.78;;;2.64;100.00
11936;BME280;6027;48.576;9.180;2023-02-22T07:31:15;96597.22;;;2.75;100.00
11936;BME280;6027;48.576;9.180;2023-02-22T07:33:41;96585.25;;;2.73;100.00
11936;BME280;6027;48.576;9.180;2023-02-22T07:36:07;96595.31;;;2.77;100.00
11936;BME280;6027;48.576;9.180;2023-02-22T07:38:33;96603.97;;;2.88;100.00
11936;BME280;6027;48.576;9.180;2023-02-22T07:40:58;96606.41;;;2.99;100.00
11936;BME280;6027;48.576;9.180;2023-02-22T07:43:26;96589.88;;;2.98;100.00
11936;BME280;6027;48.576;9.180;2023-02-22T07:45:54;96593.28;;;3.08;100.00
11936;BME280;6027;48.576;9.180;2023-02-22T07:48:22;96594.22;;;3.17;100.00
11936;BME280;6027;48.576;9.180;2023-02-22T07:50:48;96603.53;;;3.29;100.00
11936;BME280;6027;48.576;9.180;2023-02-22T07:55:42;96601.28;;;3.44;100.00
11936;BME280;6027;48.576;9.180;2023-02-22T07:58:12;96601.63;;;3.59;100.00
11936;BME280;6027;48.576;9.180;2023-02-22T08:00:40;96598.97;;;3.86;100.00
11936;BME280;6027;48.576;9.180;2023-02-22T08:03:12;96601.56;;;3.96;100.00
11936;BME280;6027;48.576;9.180;2023-02-22T08:05:38;96594.44;;;4.06;100.00
11936;BME280;6027;48.576;9.180;2023-02-22T08:08:05;96594.22;;;4.17;100.00
11936;BME280;6027;48.576;9.180;2023-02-22T08:10:32;96604.72;;;4.35;100.00
11936;BME280;6027;48.576;9.180;2023-02-22T08:12:59;96606.38;;;4.36;100.00
11936;BME280;6027;48.576;9.180;2023-02-22T08:15:31;96604.84;;;4.51;100.00
11936;BME280;6027;48.576;9.180;2023-02-22T08:17:58;96596.66;;;4.72;100.00
11936;BME280;6027;48.576;9.180;2023-02-22T08:20:24;96596.88;;;4.78;100.00
11936;BME280;6027;48.576;9.180;2023-02-22T08:22:50;96605.53;;;4.97;100.00
11936;BME280;6027;48.576;9.180;2023-02-22T08:25:17;96595.72;;;4.99;100.00
11936;BME280;6027;48.576;9.180;2023-02-22T08:27:44;96609.53;;;5.09;100.00
11936;BME280;6027;48.576;9.180;2023-02-22T08:30:13;96599.19;;;5.07;100.00
11936;BME280;6027;48.576;9.180;2023-02-22T08:32:39;96603.03;;;5.21;100.00
11936;BME280;6027;48.576;9.180;2023-02-22T08:35:05;96598.50;;;5.31;100.00
11936;BME280;6027;48.576;9.180;2023-02-22T08:37:30;96602.31;;;5.37;100.00
11936;BME280;6027;48.576;9.180;2023-02-22T08:39:56;96601.41;;;5.54;100.00
11936;BME280;6027;48.576;9.180;2023-02-22T08:42:21;96600.34;;;5.73;100.00
11936;BME280;6027;48.576;9.180;2023-02-22T08:44:47;96593.50;;;5.88;100.00
11936;BME280;6027;48.576;9.180;2023-02-22T08:47:12;96598.84;;;6.20;100.00
11936;BME280;6027;48.576;9.180;2023-02-22T08:49:38;96593.16;;;6.49;99.82
11936;BME280;6027;48.576;9.180;2023-02-22T08:52:10;96602.38;;;6.70;98.61
11936;BME280;6027;48.576;9.180;2023-02-22T08:54:35;96600.53;;;7.03;92.27
11936;BME280;6027;48.576;9.180;2023-02-22T08:57:01;96599.78;;;7.41;90.00
11936;BME280;6027;48.576;9.180;2023-02-22T08:59:26;96594.97;;;7.53;86.76
11936;BME280;6027;48.576;9.180;2023-02-22T09:01:53;96596.41;;;7.63;85.09
11936;BME280;6027;48.576;9.180;2023-02-22T09:04:19;96586.63;;;7.80;85.51
11936;BME280;6027;48.576;9.180;2023-02-22T09:06:44;96595.78;;;7.92;86.04
11936;BME280;6027;48.576;9.180;2023-02-22T09:09:16;96590.03;;;8.20;84.57
11936;BME280;6027;48.576;9.180;2023-02-22T09:11:43;96589.13;;;8.36;82.03
11936;BME280;6027;48.576;9.180;2023-02-22T09:14:08;96592.31;;;8.54;82.73
11936;BME280;6027;48.576;9.180;2023-02-22T09:16:34;96595.88;;;8.61;82.62
11936;BME280;6027;48.576;9.180;2023-02-22T09:19:02;96596.63;;;8.70;80.15
11936;BME280;6027;48.576;9.180;2023-02-22T09:21:28;96590.81;;;8.74;77.87
11936;BME280;6027;48.576;9.180;2023-02-22T09:23:53;96591.00;;;8.73;80.01
11936;BME280;6027;48.576;9.180;2023-02-22T09:26:19;96593.91;;;8.63;79.34
11936;BME280;6027;48.576;9.180;2023-02-22T09:28:49;96588.97;;;8.60;78.21
11936;BME280;6027;48.576;9.180;2023-02-22T09:31:15;96590.34;;;8.71;79.64
11936;BME280;6027;48.576;9.180;2023-02-22T09:33:40;96587.06;;;8.69;79.81
11936;BME280;6027;48.576;9.180;2023-02-22T09:36:06;96585.25;;;8.69;80.39
11936;BME280;6027;48.576;9.180;2023-02-22T09:38:32;96586.81;;;8.63;80.44
11936;BME280;6027;48.576;9.180;2023-02-22T09:41:09;96565.44;;;8.73;79.80
11936;BME280;6027;48.576;9.180;2023-02-22T09:43:46;96585.53;;;8.97;78.08
11936;BME280;6027;48.576;9.180;2023-02-22T09:51:23;96569.09;;;9.39;75.49
11936;BME280;6027;48.576;9.180;2023-02-22T09:53:54;96570.53;;;9.56;75.40
11936;BME280;6027;48.576;9.180;2023-02-22T09:56:23;96573.81;;;9.73;74.51
11936;BME280;6027;48.576;9.180;2023-02-22T09:58:54;96569.84;;;9.98;74.49
11936;BME280;6027;48.576;9.180;2023-02-22T10:01:32;96562.69;;;10.14;75.50
11936;BME280;6027;48.576;9.180;2023-02-22T10:06:26;96573.91;;;10.52;71.28
11936;BME280;6027;48.576;9.180;2023-02-22T10:08:56;96569.28;;;10.60;71.28
11936;BME280;6027;48.576;9.180;2023-02-22T10:11:36;96568.88;;;10.57;69.64
11936;BME280;6027;48.576;9.180;2023-02-22T10:17:35;96566.78;;;10.52;72.34
11936;BME280;6027;48.576;9.180;2023-02-22T10:23:24;96563.06;;;10.47;73.06
11936;BME280;6027;48.576;9.180;2023-02-22T10:25:58;96562.41;;;10.45;73.45
11936;BME280;6027;48.576;9.180;2023-02-22T10:28:38;96566.25;;;10.42;71.38
11936;BME280;6027;48.576;9.180;2023-02-22T10:31:07;96562.97;;;10.40;71.62
11936;BME280;6027;48.576;9.180;2023-02-22T10:33:40;96565.84;;;10.38;71.41
11936;BME280;6027;48.576;9.180;2023-02-22T10:36:17;96545.72;;;10.23;70.26
11936;BME280;6027;48.576;9.180;2023-02-22T10:38:52;96563.38;;;10.37;71.37
11936;BME280;6027;48.576;9.180;2023-02-22T10:41:32;96554.81;;;10.35;70.83
11936;BME280;6027;48.576;9.180;2023-02-22T10:44:00;96556.19;;;10.52;72.08
11936;BME280;6027;48.576;9.180;2023-02-22T10:46:27;96553.53;;;10.52;71.40
11936;BME280;6027;48.576;9.180;2023-02-22T10:48:55;96564.44;;;10.64;71.78
11936;BME280;6027;48.576;9.180;2023-02-22T10:51:24;96560.78;;;10.65;70.14
11936;BME280;6027;48.576;9.180;2023-02-22T10:56:50;96557.09;;;10.87;71.41
11936;BME280;6027;48.576;9.180;2023-02-22T10:59:45;96563.34;;;10.80;71.38
11936;BME280;6027;48.576;9.180;2023-02-22T11:04:48;96555.66;;;10.85;68.95
11936;BME280;6027;48.576;9.180;2023-02-22T11:07:20;96555.00;;;10.76;69.99
11936;BME280;6027;48.576;9.180;2023-02-22T11:12:17;96549.16;;;10.87;70.76
11936;BME280;6027;48.576;9.180;2023-02-22T11:14:43;96545.44;;;10.82;70.15
11936;BME280;6027;48.576;9.180;2023-02-22T11:17:09;96550.06;;;11.01;69.52
11936;BME280;6027;48.576;9.180;2023-02-22T11:19:45;96546.53;;;11.15;68.48
11936;BME280;6027;48.576;9.180;2023-02-22T11:22:18;96537.00;;;11.27;68.68
11936;BME280;6027;48.576;9.180;2023-02-22T11:27:24;96532.41;;;11.42;67.73
11936;BME280;6027;48.576;9.180;2023-02-22T11:29:54;96527.78;;;11.51;67.25
11936;BME280;6027;48.576;9.180;2023-02-22T11:32:21;96532.06;;;11.52;67.37
11936;BME280;6027;48.576;9.180;2023-02-22T11:34:49;96521.47;;;11.59;67.33
11936;BME280;6027;48.576;9.180;2023-02-22T11:40:20;96509.56;;;11.83;66.02
11936;BME280;6027;48.576;9.180;2023-02-22T11:43:06;96505.31;;;11.88;65.76
11936;BME280;6027;48.576;9.180;2023-02-22T11:45:38;96498.38;;;11.94;66.29
11936;BME280;6027;48.576;9.180;2023-02-22T11:48:06;96496.34;;;11.89;66.54
11936;BME280;6027;48.576;9.180;2023-02-22T11:53:39;96496.13;;;11.97;65.52
11936;BME280;6027;48.576;9.180;2023-02-22T11:56:21;96490.41;;;11.94;64.74
11936;BME280;6027;48.576;9.180;2023-02-22T11:58:55;96485.97;;;12.07;65.96
11936;BME280;6027;48.576;9.180;2023-02-22T12:15:00;96467.00;;;12.10;64.20
11936;BME280;6027;48.576;9.180;2023-02-22T12:23:13;96463.97;;;12.27;64.08
11936;BME280;6027;48.576;9.180;2023-02-22T12:26:08;96469.69;;;12.30;64.21
11936;BME280;6027;48.576;9.180;2023-02-22T12:28:39;96466.81;;;12.38;63.59
11936;BME280;6027;48.576;9.180;2023-02-22T12:31:29;96457.44;;;12.42;64.78
11936;BME280;6027;48.576;9.180;2023-02-22T12:34:06;96454.38;;;12.45;64.13
11936;BME280;6027;48.576;9.180;2023-02-22T12:36:46;96455.19;;;12.39;62.92
11936;BME280;6027;48.576;9.180;2023-02-22T12:39:46;96461.50;;;12.52;62.63
11936;BME280;6027;48.576;9.180;2023-02-22T12:42:17;96457.44;;;12.62;63.59
11936;BME280;6027;48.576;9.180;2023-02-22T12:44:51;96464.16;;;12.78;62.35
11936;BME280;6027;48.576;9.180;2023-02-22T12:47:23;96458.44;;;12.81;62.10
11936;BME280;6027;48.576;9.180;2023-02-22T12:49:58;96459.88;;;12.77;60.13
11936;BME280;6027;48.576;9.180;2023-02-22T12:55:25;96459.44;;;12.93;60.96
11936;BME280;6027;48.576;9.180;2023-02-22T12:58:31;96454.53;;;12.97;60.51
11936;BME280;6027;48.576;9.180;2023-02-22T13:01:16;96457.16;;;13.10;60.59
11936;BME280;6027;48.576;9.180;2023-02-22T13:03:44;96451.88;;;13.03;58.76
11936;BME280;6027;48.576;9.180;2023-02-22T13:08:43;96444.91;;;13.16;60.38
11936;BME280;6027;48.576;9.180;2023-02-22T13:16:31;96449.59;;;13.27;59.33
11936;BME280;6027;48.576;9.180;2023-02-22T13:21:54;96444.69;;;13.17;59.43
11936;BME280;6027;48.576;9.180;2023-02-22T13:24:27;96440.81;;;13.20;59.22
11936;BME280;6027;48.576;9.180;2023-02-22T13:30:44;96437.53;;;13.24;59.92
11936;BME280;6027;48.576;9.180;2023-02-22T13:38:22;96437.34;;;13.26;60.79
11936;BME280;6027;48.576;9.180;2023-02-22T13:41:30;96443.00;;;13.36;60.07
11936;BME280;6027;48.576;9.180;2023-02-22T13:51:38;96437.69;;;13.36;59.96
11936;BME280;6027;48.576;9.180;2023-02-22T13:54:24;96431.22;;;13.19;60.20
11936;BME280;6027;48.576;9.180;2023-02-22T13:56:51;96440.19;;;13.18;61.09
11936;BME280;6027;48.576;9.180;2023-02-22T14:01:50;96431.00;;;13.27;61.58
11936;BME280;6027;48.576;9.180;2023-02-22T14:04:33;96438.16;;;13.26;61.50
11936;BME280;6027;48.576;9.180;2023-02-22T14:07:00;96434.47;;;13.21;61.03
11936;BME280;6027;48.576;9.180;2023-02-22T14:17:41;96443.63;;;13.38;60.48
11936;BME280;6027;48.576;9.180;2023-02-22T14:20:25;96438.50;;;13.43;61.29
11936;BME280;6027;48.576;9.180;2023-02-22T14:23:27;96442.41;;;13.34;61.76
11936;BME280;6027;48.576;9.180;2023-02-22T14:25:56;96439.53;;;13.35;61.38
11936;BME280;6027;48.576;9.180;2023-02-22T14:31:26;96436.81;;;13.48;61.71
11936;BME280;6027;48.576;9.180;2023-02-22T14:34:15;96432.75;;;13.46;61.81
11936;BME280;6027;48.576;9.180;2023-02-22T14:37:01;96437.09;;;13.34;62.53
11936;BME280;6027;48.576;9.180;2023-02-22T14:39:34;96440.16;;;13.31;62.84
11936;BME280;6027;48.576;9.180;2023-02-22T14:42:32;96439.72;;;13.40;62.24
11936;BME280;6027;48.576;9.180;2023-02-22T14:45:04;96427.47;;;13.39;62.60
11936;BME280;6027;48.576;9.180;2023-02-22T14:55:46;96422.34;;;13.38;63.54
11936;BME280;6027;48.576;9.180;2023-02-22T14:58:53;96429.28;;;13.39;64.30
11936;BME280;6027;48.576;9.180;2023-02-22T15:01:23;96421.06;;;13.47;64.36
11936;BME280;6027;48.576;9.180;2023-02-22T15:03:48;96427.66;;;13.44;64.16
11936;BME280;6027;48.576;9.180;2023-02-22T15:06:20;96427.66;;;13.38;64.37
11936;BME280;6027;48.576;9.180;2023-02-22T15:08:47;96424.63;;;13.28;65.12
11936;BME280;6027;48.576;9.180;2023-02-22T15:11:27;96427.50;;;13.26;64.93
11936;BME280;6027;48.576;9.180;2023-02-22T15:13:57;96423.44;;;13.24;65.27
11936;BME280;6027;48.576;9.180;2023-02-22T15:16:28;96421.78;;;13.23;65.24
11936;BME280;6027;48.576;9.180;2023-02-22T15:18:58;96429.53;;;13.31;65.00
11936;BME280;6027;48.576;9.180;2023-02-22T15:21:26;96426.03;;;13.30;65.60
11936;BME280;6027;48.576;9.180;2023-02-22T15:23:58;96431.97;;;13.32;65.33
11936;BME280;6027;48.576;9.180;2023-02-22T15:26:30;96420.16;;;13.15;65.19
11936;BME280;6027;48.576;9.180;2023-02-22T15:29:00;96427.94;;;13.17;65.01
11936;BME280;6027;48.576;9.180;2023-02-22T15:31:32;96429.78;;;13.23;65.66
11936;BME280;6027;48.576;9.180;2023-02-22T15:36:42;96421.00;;;13.16;66.06
11936;BME280;6027;48.576;9.180;2023-02-22T15:39:18;96423.66;;;13.16;64.78
11936;BME280;6027;48.576;9.180;2023-02-22T15:41:44;96431.41;;;13.17;64.16
11936;BME280;6027;48.576;9.180;2023-02-22T15:44:10;96433.06;;;13.05;64.67
11936;BME280;6027;48.576;9.180;2023-02-22T15:46:37;96423.63;;;13.09;64.74
11936;BME280;6027;48.576;9.180;2023-02-22T15:49:22;96431.59;;;13.09;64.45
11936;BME280;6027;48.576;9.180;2023-02-22T15:52:00;96431.63;;;13.16;65.20
11936;BME280;6027;48.576;9.180;2023-02-22T15:54:27;96434.91;;;13.04;65.01